createdAt,value
2022-10-01T00:02:07.022Z,16.56
2022-10-01T00:04:37.960Z,16.62
2022-10-01T00:07:09.644Z,16.65
2022-10-01T00:09:37.371Z,16.70
2022-10-01T00:12:05.015Z,16.72
2022-10-01T00:14:33.308Z,16.76
2022-10-01T00:17:01.053Z,16.85
2022-10-01T00:19:29.398Z,16.84
2022-10-01T00:21:57.091Z,16.87
2022-10-01T00:24:24.680Z,16.87
2022-10-01T00:26:52.509Z,16.86
2022-10-01T00:29:20.095Z,16.82
2022-10-01T00:31:48.360Z,16.84
2022-10-01T00:34:15.998Z,16.87
2022-10-01T00:36:43.591Z,16.82
2022-10-01T00:39:11.647Z,16.85
2022-10-01T00:41:39.551Z,16.88
2022-10-01T00:44:38.039Z,16.90
2022-10-01T00:47:30.407Z,16.88
2022-10-01T00:50:34.233Z,16.88
2022-10-01T00:53:05.721Z,16.86
2022-10-01T00:55:34.164Z,16.75
2022-10-01T00:58:03.290Z,16.78
2022-10-01T01:00:31.149Z,16.80
2022-10-01T01:02:59.006Z,16.76
2022-10-01T01:05:26.956Z,16.73
2022-10-01T01:07:54.500Z,16.71
2022-10-01T01:10:44.197Z,16.67
2022-10-01T01:13:13.676Z,16.67
2022-10-01T01:15:59.103Z,16.66
2022-10-01T01:18:41.779Z,16.64
2022-10-01T01:21:12.213Z,16.63
2022-10-01T01:23:59.590Z,16.63
2022-10-01T01:26:35.267Z,16.56
2022-10-01T01:29:06.878Z,16.50
2022-10-01T01:31:38.132Z,16.46
2022-10-01T01:34:12.486Z,16.38
2022-10-01T03:02:50.105Z,13.90
2022-10-01T03:05:17.934Z,13.87
2022-10-01T03:07:45.960Z,13.85
2022-10-01T03:10:16.258Z,13.81
2022-10-01T03:12:45.420Z,13.80
2022-10-01T03:15:14.215Z,13.78
2022-10-01T03:17:41.758Z,13.78
2022-10-01T03:20:09.625Z,13.72
2022-10-01T03:22:37.955Z,13.71
2022-10-01T03:25:05.966Z,13.69
2022-10-01T03:27:34.302Z,13.69
2022-10-01T03:30:01.942Z,13.66
2022-10-01T03:32:29.687Z,13.68
2022-10-01T03:34:57.255Z,13.71
2022-10-01T03:37:24.983Z,13.69
2022-10-01T03:39:52.599Z,13.68
2022-10-01T03:42:20.123Z,13.68
2022-10-01T03:44:48.630Z,13.68
2022-10-01T03:47:16.161Z,13.70
2022-10-01T03:49:43.769Z,13.72
2022-10-01T03:52:11.372Z,13.76
2022-10-01T03:54:39.508Z,13.80
2022-10-01T03:57:08.755Z,13.81
2022-10-01T03:59:36.894Z,13.85
2022-10-01T04:02:04.511Z,13.92
2022-10-01T04:04:32.774Z,13.98
2022-10-01T04:07:00.483Z,14.02
2022-10-01T04:09:28.225Z,14.02
2022-10-01T04:11:56.128Z,14.03
2022-10-01T04:14:24.799Z,14.10
2022-10-01T04:16:52.852Z,14.15
2022-10-01T04:19:20.832Z,14.23
2022-10-01T04:21:48.365Z,14.27
2022-10-01T04:24:17.319Z,14.38
2022-10-01T04:26:44.892Z,14.47
2022-10-01T04:29:12.369Z,14.58
2022-10-01T04:31:40.482Z,14.66
2022-10-01T04:34:08.124Z,14.80
2022-10-01T04:36:35.723Z,14.96
2022-10-01T04:39:04.239Z,15.16
2022-10-01T04:41:32.105Z,15.37
2022-10-01T04:44:00.293Z,15.53
2022-10-01T04:46:30.395Z,15.70
2022-10-01T04:48:58.291Z,15.88
2022-10-01T04:51:26.186Z,16.09
2022-10-01T04:53:53.996Z,16.30
2022-10-01T04:56:21.601Z,16.50
2022-10-01T04:58:49.313Z,16.58
2022-10-01T05:01:16.838Z,16.70
2022-10-01T05:03:44.429Z,16.82
2022-10-01T05:06:12.090Z,16.94
2022-10-01T05:08:39.637Z,17.05
2022-10-01T05:11:07.747Z,17.18
2022-10-01T05:13:35.313Z,17.21
2022-10-01T05:16:03.913Z,17.38
2022-10-01T05:18:32.544Z,17.43
2022-10-01T05:21:05.384Z,17.50
2022-10-01T05:23:33.484Z,17.61
2022-10-01T05:26:01.036Z,17.66
2022-10-01T05:28:29.257Z,17.83
2022-10-01T05:31:00.523Z,17.95
2022-10-01T05:33:29.795Z,18.13
2022-10-01T05:35:57.952Z,18.21
2022-10-01T05:38:26.175Z,18.44
2022-10-01T05:40:53.771Z,18.66
2022-10-01T05:43:21.275Z,18.85
2022-10-01T05:45:49.858Z,19.08
2022-10-01T05:48:17.557Z,19.16
2022-10-01T05:50:50.067Z,19.23
2022-10-01T05:53:17.827Z,19.35
2022-10-01T05:55:45.409Z,19.52
2022-10-01T05:58:13.801Z,19.54
2022-10-01T06:00:41.932Z,19.71
2022-10-01T06:03:12.879Z,19.71
2022-10-01T06:05:40.961Z,19.86
2022-10-01T06:08:09.905Z,20.05
2022-10-01T06:10:38.075Z,20.22
2022-10-01T06:13:05.773Z,20.10
2022-10-01T06:15:39.876Z,20.14
2022-10-01T06:18:08.378Z,20.55
2022-10-01T06:20:36.689Z,20.69
2022-10-01T06:23:11.426Z,20.61
2022-10-01T06:25:42.893Z,20.69
2022-10-01T06:28:11.931Z,20.86
2022-10-01T06:30:40.231Z,20.73
2022-10-01T06:33:09.465Z,20.78
2022-10-01T06:35:43.793Z,21.04
2022-10-01T06:38:11.581Z,21.05
2022-10-01T06:43:08.501Z,20.69
2022-10-01T06:45:43.682Z,20.87
2022-10-01T06:48:15.707Z,20.88
2022-10-01T06:50:44.049Z,21.03
2022-10-01T06:53:12.230Z,21.13
2022-10-01T06:55:39.923Z,20.94
2022-10-01T06:58:10.300Z,20.99
2022-10-01T07:00:39.233Z,20.99
2022-10-01T07:03:11.044Z,21.06
2022-10-01T07:05:39.137Z,21.13
2022-10-01T07:08:06.823Z,21.20
2022-10-01T07:10:38.537Z,21.30
2022-10-01T07:13:07.746Z,21.38
2022-10-01T07:15:35.291Z,21.51
2022-10-01T07:18:03.305Z,21.43
2022-10-01T07:20:39.639Z,21.31
2022-10-01T07:23:08.824Z,21.23
2022-10-01T07:25:38.799Z,21.25
2022-10-01T07:28:07.669Z,21.00
2022-10-01T07:30:35.337Z,21.15
2022-10-01T07:33:03.039Z,21.07
2022-10-01T07:35:30.524Z,21.02
2022-10-01T07:37:58.068Z,21.15
2022-10-01T07:40:27.667Z,21.03
2022-10-01T07:42:56.675Z,20.88
2022-10-01T07:45:24.399Z,21.05
2022-10-01T07:47:56.511Z,21.06
2022-10-01T07:50:25.467Z,21.04
2022-10-01T07:52:56.716Z,21.06
2022-10-01T07:55:27.061Z,21.13
2022-10-01T07:57:55.582Z,21.08
2022-10-01T08:00:24.598Z,21.03
2022-10-01T08:02:53.819Z,21.03
2022-10-01T08:05:25.579Z,20.96
2022-10-01T08:07:54.203Z,21.10
2022-10-01T08:10:23.397Z,21.36
2022-10-01T08:12:51.304Z,21.54
2022-10-01T08:15:18.881Z,21.71
2022-10-01T08:17:46.501Z,21.94
2022-10-01T08:20:14.105Z,22.00
2022-10-01T08:22:43.049Z,21.99
2022-10-01T08:25:10.527Z,21.97
2022-10-01T08:27:42.075Z,21.95
2022-10-01T08:30:10.040Z,22.00
2022-10-01T08:32:37.577Z,22.23
2022-10-01T08:35:07.927Z,22.37
2022-10-01T08:37:35.789Z,22.50
2022-10-01T08:40:03.492Z,22.54
2022-10-01T08:42:53.707Z,22.57
2022-10-01T08:45:29.790Z,22.66
2022-10-01T08:48:06.042Z,22.72
2022-10-01T08:50:41.470Z,22.98
2022-10-01T08:53:15.427Z,22.93
2022-10-01T08:55:43.285Z,23.06
2022-10-01T08:58:12.689Z,23.19
2022-10-01T09:00:42.107Z,23.22
2022-10-01T09:03:12.469Z,23.40
2022-10-01T09:05:47.941Z,23.55
2022-10-01T09:08:43.841Z,23.76
2022-10-01T09:11:45.391Z,23.91
2022-10-01T09:14:19.495Z,24.12
2022-10-01T09:17:00.462Z,24.31
2022-10-01T09:19:33.965Z,24.37
2022-10-01T09:22:06.453Z,24.37
2022-10-01T09:24:42.269Z,24.48
2022-10-01T09:27:15.932Z,24.79
2022-10-01T09:29:55.545Z,24.86
2022-10-01T09:32:25.167Z,24.93
2022-10-01T09:34:52.876Z,25.02
2022-10-01T09:37:28.635Z,25.03
2022-10-01T09:40:23.740Z,25.17
2022-10-01T09:42:52.174Z,25.19
2022-10-01T09:45:25.126Z,25.35
2022-10-01T09:47:54.550Z,25.35
2022-10-01T09:50:48.987Z,25.36
2022-10-01T09:53:18.440Z,25.22
2022-10-01T09:55:48.134Z,25.26
2022-10-01T09:58:18.257Z,25.27
2022-10-01T10:00:45.867Z,25.40
2022-10-01T10:03:22.948Z,25.49
2022-10-01T10:05:50.989Z,25.39
2022-10-01T10:08:27.994Z,25.45
2022-10-01T10:11:02.819Z,25.27
2022-10-01T10:13:40.157Z,25.29
2022-10-01T10:16:29.125Z,25.33
2022-10-01T10:18:59.016Z,25.37
2022-10-01T10:21:28.796Z,25.39
2022-10-01T10:24:01.183Z,25.51
2022-10-01T10:26:34.276Z,25.47
2022-10-01T10:29:02.887Z,25.60
2022-10-01T10:31:40.836Z,25.39
2022-10-01T10:34:14.132Z,25.40
2022-10-01T10:36:41.953Z,25.22
2022-10-01T10:39:22.232Z,25.18
2022-10-01T10:41:49.793Z,25.05
2022-10-01T10:44:21.311Z,24.94
2022-10-01T10:46:49.350Z,24.88
2022-10-01T10:49:21.916Z,24.80
2022-10-01T10:51:54.217Z,24.86
2022-10-01T10:54:24.902Z,24.89
2022-10-01T10:57:22.736Z,24.82
2022-10-01T11:00:18.734Z,24.88
2022-10-01T11:02:59.728Z,24.86
2022-10-01T11:05:30.105Z,24.80
2022-10-01T11:07:59.963Z,24.61
2022-10-01T11:10:27.553Z,24.43
2022-10-01T11:13:01.207Z,24.58
2022-10-01T11:15:45.828Z,24.57
2022-10-01T11:18:47.514Z,24.61
2022-10-01T11:21:39.443Z,24.40
2022-10-01T11:24:15.963Z,24.42
2022-10-01T11:27:01.472Z,24.26
2022-10-01T11:29:53.103Z,24.14
2022-10-01T11:33:00.753Z,24.06
2022-10-01T11:35:49.736Z,24.16
2022-10-01T11:38:17.236Z,24.19
2022-10-01T11:41:06.413Z,24.32
2022-10-01T11:43:45.047Z,24.43
2022-10-01T11:46:14.590Z,24.36
2022-10-01T11:48:46.108Z,24.17
2022-10-01T11:51:16.408Z,24.09
2022-10-01T11:53:55.107Z,24.21
2022-10-01T11:56:45.466Z,24.02
2022-10-01T11:59:20.412Z,24.16
2022-10-01T12:02:26.980Z,24.22
2022-10-01T12:05:07.755Z,24.13
2022-10-01T12:07:55.472Z,24.07
2022-10-01T12:10:30.665Z,24.17
2022-10-01T12:13:07.514Z,24.43
2022-10-01T12:15:58.409Z,24.84
2022-10-01T12:18:31.101Z,24.77
2022-10-01T12:21:03.348Z,24.66
2022-10-01T12:23:52.357Z,24.87
2022-10-01T12:26:38.731Z,24.76
2022-10-01T12:29:21.369Z,24.55
2022-10-01T12:31:51.474Z,24.22
2022-10-01T12:34:36.882Z,24.33
2022-10-01T12:37:33.283Z,24.41
2022-10-01T12:40:10.430Z,24.63
2022-10-01T12:42:37.962Z,24.98
2022-10-01T12:45:25.878Z,25.61
2022-10-01T12:48:19.605Z,26.02
2022-10-01T12:51:21.864Z,26.91
2022-10-01T12:54:21.362Z,27.08
2022-10-01T12:57:10.685Z,27.23
2022-10-01T12:59:59.173Z,27.00
2022-10-01T13:02:52.143Z,27.29
2022-10-01T13:05:41.494Z,27.12
2022-10-01T13:08:18.123Z,26.93
2022-10-01T13:11:03.670Z,26.84
2022-10-01T13:13:34.980Z,26.92
2022-10-01T13:16:27.608Z,26.72
2022-10-01T13:19:17.829Z,26.23
2022-10-01T13:21:57.637Z,25.91
2022-10-01T13:24:49.563Z,25.77
2022-10-01T13:27:39.604Z,25.74
2022-10-01T13:30:16.785Z,25.42
2022-10-01T13:32:53.682Z,25.12
2022-10-01T13:35:35.900Z,25.05
2022-10-01T13:38:17.586Z,24.86
2022-10-01T13:40:44.938Z,24.96
2022-10-01T13:43:20.107Z,25.06
2022-10-01T13:45:49.674Z,25.28
2022-10-01T13:48:23.726Z,25.40
2022-10-01T13:50:58.976Z,25.45
2022-10-01T13:53:26.778Z,25.55
2022-10-01T13:55:54.564Z,25.55
2022-10-01T13:58:31.738Z,25.75
2022-10-01T14:01:01.459Z,25.73
2022-10-01T14:03:33.779Z,25.91
2022-10-01T14:06:03.689Z,26.28
2022-10-01T14:08:38.672Z,26.51
2022-10-01T14:11:29.686Z,26.63
2022-10-01T14:14:17.136Z,26.54
2022-10-01T14:16:46.010Z,26.71
2022-10-01T14:19:20.472Z,27.03
2022-10-01T14:22:16.457Z,27.32
2022-10-01T14:24:59.327Z,27.16
2022-10-01T14:27:35.227Z,26.84
2022-10-01T14:30:09.785Z,26.69
2022-10-01T14:32:59.153Z,26.11
2022-10-01T14:35:59.305Z,25.64
2022-10-01T14:38:27.009Z,25.41
2022-10-01T14:40:54.726Z,24.88
2022-10-01T14:43:23.931Z,24.51
2022-10-01T14:45:54.053Z,24.22
2022-10-01T14:48:23.079Z,23.70
2022-10-01T14:50:53.329Z,23.42
2022-10-01T14:53:22.834Z,23.22
2022-10-01T14:55:55.612Z,22.96
2022-10-01T14:58:33.416Z,22.62
2022-10-01T15:01:02.325Z,22.32
2022-10-01T15:03:39.435Z,22.22
2022-10-01T15:06:15.254Z,21.98
2022-10-01T15:08:45.274Z,21.75
2022-10-01T15:11:28.493Z,21.58
2022-10-01T15:14:01.793Z,21.39
2022-10-01T15:16:29.927Z,21.23
2022-10-01T15:19:02.247Z,21.05
2022-10-01T15:21:38.432Z,20.84
2022-10-01T15:24:26.018Z,20.64
2022-10-01T15:26:54.197Z,20.44
2022-10-01T15:29:21.860Z,20.26
2022-10-01T15:31:50.264Z,20.10
2022-10-01T15:34:19.320Z,19.95
2022-10-01T15:36:48.294Z,19.81
2022-10-01T15:39:25.627Z,19.65
2022-10-01T15:41:53.567Z,19.51
2022-10-01T15:44:38.453Z,19.37
2022-10-01T15:47:41.499Z,19.19
2022-10-01T15:50:09.027Z,19.08
2022-10-01T15:52:52.390Z,18.96
2022-10-01T15:55:24.174Z,18.80
2022-10-01T15:57:56.617Z,18.74
2022-10-01T16:00:26.654Z,18.71
2022-10-01T16:02:55.113Z,18.64
2022-10-01T16:05:25.026Z,18.54
2022-10-01T16:07:56.367Z,18.43
2022-10-01T16:10:38.063Z,18.35
2022-10-01T16:13:41.359Z,18.25
2022-10-01T16:16:29.681Z,18.20
2022-10-01T16:19:22.880Z,18.18
2022-10-01T16:22:37.668Z,18.14
2022-10-01T16:25:28.737Z,18.03
2022-10-01T16:28:04.710Z,17.92
2022-10-01T16:30:34.039Z,17.88
2022-10-01T16:33:02.595Z,17.83
2022-10-01T16:35:35.988Z,17.83
2022-10-01T16:38:09.773Z,17.78
2022-10-01T16:40:42.382Z,17.75
2022-10-01T16:43:18.637Z,17.72
2022-10-01T16:45:46.414Z,17.67
2022-10-01T16:48:19.721Z,17.66
2022-10-01T16:50:47.606Z,17.67
2022-10-01T16:53:16.840Z,17.67
2022-10-01T16:55:44.827Z,17.61
2022-10-01T16:58:13.093Z,17.65
2022-10-01T17:00:40.814Z,17.61
2022-10-01T17:03:14.257Z,17.64
2022-10-01T17:05:42.444Z,17.62
2022-10-01T17:08:13.069Z,17.60
2022-10-01T17:10:53.830Z,17.58
2022-10-01T17:13:23.125Z,17.58
2022-10-01T17:15:51.919Z,17.61
2022-10-01T17:18:19.858Z,17.62
2022-10-01T17:20:47.720Z,17.64
2022-10-01T17:23:16.837Z,17.64
2022-10-01T17:25:45.977Z,17.63
2022-10-01T17:28:18.076Z,17.65
2022-10-01T17:30:47.817Z,17.63
2022-10-01T17:33:16.641Z,17.59
2022-10-01T17:35:45.897Z,17.58
2022-10-01T17:38:13.838Z,17.55
2022-10-01T17:40:42.347Z,17.51
2022-10-01T17:43:11.616Z,17.46
2022-10-01T17:45:39.435Z,17.43
2022-10-01T17:48:07.061Z,17.37
2022-10-01T17:50:34.772Z,17.34
2022-10-01T17:53:02.393Z,17.31
2022-10-01T17:55:30.134Z,17.34
2022-10-01T17:57:57.907Z,17.32
2022-10-01T18:00:25.514Z,17.29
2022-10-01T18:02:53.903Z,17.25
2022-10-01T18:05:21.612Z,17.25
2022-10-01T18:07:51.730Z,17.22
2022-10-01T18:10:19.387Z,17.19
2022-10-01T18:12:47.051Z,17.18
2022-10-01T18:15:14.708Z,17.17
2022-10-01T18:17:43.647Z,17.14
2022-10-01T18:20:14.220Z,17.12
2022-10-01T18:22:42.080Z,17.10
2022-10-01T18:25:10.075Z,17.08
2022-10-01T18:27:38.431Z,17.04
2022-10-01T18:30:06.713Z,17.02
2022-10-01T18:32:41.237Z,17.01
2022-10-01T18:35:26.114Z,17.00
2022-10-01T18:37:56.052Z,17.00
2022-10-01T18:40:27.854Z,16.98
2022-10-01T18:43:13.181Z,16.94
2022-10-01T18:45:41.241Z,16.91
2022-10-01T18:48:16.879Z,16.92
2022-10-01T18:51:10.434Z,16.88
2022-10-01T18:53:53.561Z,16.89
2022-10-01T18:56:23.208Z,16.90
2022-10-01T18:59:09.196Z,16.90
2022-10-01T19:01:39.993Z,16.90
2022-10-01T19:04:16.411Z,16.90
2022-10-01T19:06:49.005Z,16.92
2022-10-01T19:09:17.420Z,16.95
2022-10-01T19:12:00.115Z,16.96
2022-10-01T19:14:38.638Z,16.99
2022-10-01T19:17:15.632Z,17.00
2022-10-01T19:20:10.579Z,17.01
2022-10-01T19:23:28.418Z,17.02
2022-10-01T19:26:05.779Z,17.03
2022-10-01T19:28:57.743Z,17.05
2022-10-01T19:31:28.033Z,17.09
2022-10-01T19:34:24.882Z,17.09
2022-10-01T19:36:59.949Z,17.11
2022-10-01T19:39:30.089Z,17.13
2022-10-01T19:42:13.289Z,17.16
2022-10-01T19:45:04.666Z,17.17
2022-10-01T19:47:41.818Z,17.19
2022-10-01T19:50:33.951Z,17.38
2022-10-01T19:53:02.454Z,17.48
2022-10-01T19:55:38.295Z,17.57
2022-10-01T19:58:18.308Z,17.66
2022-10-01T20:00:48.121Z,17.83
2022-10-01T20:03:34.517Z,17.94
2022-10-01T20:06:14.056Z,18.03
2022-10-01T20:08:47.266Z,18.11
2022-10-01T20:11:32.112Z,18.16
2022-10-01T20:14:35.236Z,18.19
2022-10-01T20:17:06.652Z,18.21
2022-10-01T20:20:04.440Z,18.28
2022-10-01T20:22:34.945Z,18.37
2022-10-01T20:25:12.672Z,18.45
2022-10-01T20:27:52.406Z,18.46
2022-10-01T20:30:20.865Z,18.49
2022-10-01T20:33:00.841Z,18.48
2022-10-01T20:35:51.637Z,18.46
2022-10-01T20:38:21.069Z,18.42
2022-10-01T20:41:15.741Z,18.43
2022-10-01T20:44:01.829Z,18.42
2022-10-01T20:46:34.241Z,18.43
2022-10-01T20:49:28.173Z,18.43
2022-10-01T20:52:02.678Z,18.35
2022-10-01T20:54:39.397Z,18.39
2022-10-01T20:57:24.546Z,18.40
2022-10-01T20:59:53.803Z,18.45
2022-10-01T21:02:26.774Z,18.40
2022-10-01T21:05:09.739Z,18.40
2022-10-01T21:07:44.956Z,18.37
2022-10-01T21:10:33.506Z,18.36
2022-10-01T21:13:17.507Z,18.33
2022-10-01T21:16:07.096Z,18.28
2022-10-01T21:19:16.431Z,18.24
2022-10-01T21:21:47.298Z,18.22
2022-10-01T21:24:50.867Z,18.26
2022-10-01T21:27:21.353Z,18.23
2022-10-01T21:30:05.705Z,18.21
2022-10-01T21:33:31.745Z,18.18
2022-10-01T21:36:07.890Z,18.19
2022-10-01T21:38:41.181Z,18.21
2022-10-01T21:41:14.684Z,18.22
2022-10-01T21:44:02.512Z,18.20
2022-10-01T21:46:33.468Z,18.20
2022-10-01T21:49:18.929Z,18.19
2022-10-01T21:52:10.773Z,18.20
2022-10-01T21:55:16.282Z,18.17
2022-10-01T21:57:53.796Z,18.18
2022-10-01T22:00:25.241Z,18.18
2022-10-01T22:03:04.689Z,18.11
2022-10-01T22:05:38.800Z,18.15
2022-10-01T22:08:15.162Z,18.10
2022-10-01T22:10:48.909Z,18.08
2022-10-01T22:13:22.131Z,18.03
2022-10-01T22:15:52.432Z,18.04
2022-10-01T22:18:34.473Z,18.07
2022-10-01T22:21:03.250Z,18.07
2022-10-01T22:23:30.746Z,18.06
2022-10-01T22:26:01.395Z,18.06
2022-10-01T22:28:39.046Z,18.02
2022-10-01T22:31:07.067Z,17.99
2022-10-01T22:33:40.609Z,18.02
2022-10-01T22:36:13.804Z,17.99
2022-10-01T22:38:48.092Z,17.98
2022-10-01T22:41:47.422Z,17.95
2022-10-01T22:44:19.662Z,17.97
2022-10-01T22:47:21.752Z,17.96
2022-10-01T22:50:12.660Z,17.96
2022-10-01T22:52:53.063Z,17.93
2022-10-01T22:55:38.802Z,17.90
2022-10-01T22:58:41.258Z,17.86
2022-10-01T23:01:30.394Z,17.82
2022-10-01T23:04:22.351Z,17.85
2022-10-01T23:07:06.524Z,17.84
2022-10-01T23:10:00.192Z,17.86
2022-10-01T23:12:42.999Z,17.88
2022-10-01T23:15:32.249Z,17.88
2022-10-01T23:18:05.771Z,17.88
2022-10-01T23:20:39.195Z,17.94
2022-10-01T23:23:28.533Z,17.97
2022-10-01T23:26:10.162Z,17.98
2022-10-01T23:29:01.278Z,17.96
2022-10-01T23:31:35.174Z,17.91
2022-10-01T23:34:25.232Z,17.88
2022-10-01T23:37:14.263Z,17.85
2022-10-01T23:39:47.577Z,17.80
2022-10-01T23:42:23.101Z,17.80
2022-10-01T23:45:09.398Z,17.80
2022-10-01T23:47:47.015Z,17.81
2022-10-01T23:50:30.831Z,17.81
2022-10-01T23:53:22.523Z,17.79
2022-10-01T23:56:28.205Z,17.74
2022-10-01T23:58:58.757Z,17.70
